Time;durP1;ratioP1;P1;durP2;ratioP2;P2;SDS_P1;SDS_P2;PMS_P1;PMS_P2;Temp;Humidity;BMP_temperature;BMP_pressure;BME280_temperature;BME280_humidity;BME280_pressure;Samples;Min_cycle;Max_cycle;Signal;HPM_P1;HPM_P2
2022/03/18 00:00:43;;;;;;;18.30;12.57;;;;;;;0.80;100.00;102770.22;5112216;28;20027;-62
2022/03/18 00:03:08;;;;;;;15.82;11.43;;;;;;;0.78;100.00;102771.88;5112984;28;20023;-62
2022/03/18 00:05:35;;;;;;;16.48;11.10;;;;;;;0.82;100.00;102788.38;5113095;28;20096;-62
2022/03/18 00:08:01;;;;;;;17.38;11.70;;;;;;;0.76;100.00;102783.03;5094311;28;20443;-62
2022/03/18 00:10:27;;;;;;;21.70;11.68;;;;;;;0.42;100.00;102729.47;5113263;28;20031;-62
2022/03/18 00:12:53;;;;;;;18.80;11.80;;;;;;;0.65;100.00;102774.09;5115130;28;20139;-62
2022/03/18 00:15:19;;;;;;;13.63;10.65;;;;;;;0.67;100.00;102775.91;5116873;28;20034;-62
2022/03/18 00:17:45;;;;;;;21.15;11.00;;;;;;;0.53;100.00;102759.09;5116620;28;20156;-62
2022/03/18 00:20:12;;;;;;;11.82;9.93;;;;;;;0.56;100.00;102769.53;5116489;28;20031;-62
2022/03/18 00:22:39;;;;;;;16.70;10.88;;;;;;;0.49;100.00;102772.78;5114946;28;20035;-62
2022/03/18 00:25:06;;;;;;;23.50;10.98;;;;;;;0.45;100.00;102773.50;5116023;28;20067;-62
2022/03/18 00:27:32;;;;;;;15.57;11.43;;;;;;;0.40;100.00;102777.69;5116317;28;20028;-62
2022/03/18 00:29:58;;;;;;;15.88;10.77;;;;;;;0.44;100.00;102785.56;5116085;28;20028;-62
2022/03/18 00:32:23;;;;;;;14.73;11.38;;;;;;;0.42;100.00;102791.53;5116044;28;20016;-62
2022/03/18 00:34:49;;;;;;;17.15;11.00;;;;;;;0.32;100.00;102776.56;5113156;28;20807;-62
2022/03/18 00:37:14;;;;;;;17.95;11.10;;;;;;;0.00;100.00;102727.38;5115932;28;20462;-62
2022/03/18 00:39:40;;;;;;;15.52;10.63;;;;;;;-0.02;100.00;102728.16;5112181;28;20036;-62
2022/03/18 00:42:06;;;;;;;13.50;10.60;;;;;;;0.31;100.00;102783.44;5116276;28;20030;-62
2022/03/18 00:44:31;;;;;;;16.83;11.45;;;;;;;0.26;100.00;102773.81;5116006;28;20037;-62
2022/03/18 00:46:57;;;;;;;22.55;11.38;;;;;;;0.26;100.00;102779.88;5115822;28;20106;-62
2022/03/18 00:52:07;;;;;;;15.83;11.20;;;;;;;0.21;100.00;102777.94;5115168;28;20085;-62
2022/03/18 00:54:36;;;;;;;22.00;11.25;;;;;;;0.25;100.00;102784.97;5115779;28;20106;-62
2022/03/18 00:57:02;;;;;;;17.33;11.57;;;;;;;0.18;100.00;102785.63;5115889;28;20031;-62
2022/03/18 00:59:28;;;;;;;15.25;9.73;;;;;;;0.17;100.00;102789.91;5116010;28;20034;-62
2022/03/18 01:01:54;;;;;;;18.75;11.07;;;;;;;0.13;100.00;102790.66;5115549;28;20484;-62
2022/03/18 01:04:20;;;;;;;15.00;10.18;;;;;;;0.14;100.00;102770.84;5115152;28;20110;-62
2022/03/18 01:06:46;;;;;;;16.67;10.02;;;;;;;0.09;100.00;102762.97;5096273;28;20055;-62
2022/03/18 01:09:12;;;;;;;18.92;10.48;;;;;;;0.32;100.00;102799.84;5115451;28;20444;-62
2022/03/18 01:11:37;;;;;;;15.13;10.85;;;;;;;0.32;100.00;102805.00;5115775;28;20028;-62
2022/03/18 01:14:03;;;;;;;15.35;10.38;;;;;;;0.10;100.00;102771.59;5115494;28;20370;-62
2022/03/18 01:16:28;;;;;;;16.15;10.02;;;;;;;0.36;100.00;102797.41;5114432;28;20695;-62
2022/03/18 01:18:54;;;;;;;16.63;10.60;;;;;;;0.36;100.00;102793.94;5115238;28;20110;-62
2022/03/18 01:21:19;;;;;;;16.40;10.38;;;;;;;0.36;100.00;102801.69;5115220;28;20114;-62
2022/03/18 01:23:45;;;;;;;18.83;10.65;;;;;;;0.30;100.00;102796.34;5115626;28;20027;-62
2022/03/18 01:26:11;;;;;;;15.82;9.27;;;;;;;0.26;100.00;102804.84;5114844;28;20137;-62
2022/03/18 01:28:36;;;;;;;15.13;10.52;;;;;;;0.20;100.00;102799.47;5115307;28;20465;-62
2022/03/18 01:31:02;;;;;;;17.05;9.30;;;;;;;0.11;100.00;102794.88;5096754;28;20027;-62
2022/03/18 01:33:27;;;;;;;12.80;8.65;;;;;;;0.16;100.00;102795.03;5115011;28;20477;-62
2022/03/18 01:35:54;;;;;;;17.40;9.20;;;;;;;0.36;100.00;102817.22;5114725;28;20051;-62
2022/03/18 01:38:19;;;;;;;12.52;8.90;;;;;;;0.33;100.00;102820.59;5113126;28;20084;-62
2022/03/18 01:40:44;;;;;;;16.27;9.57;;;;;;;0.24;100.00;102822.88;5114076;28;20411;-62
2022/03/18 01:43:11;;;;;;;14.40;9.48;;;;;;;0.17;100.00;102820.91;5114720;28;20031;-62
2022/03/18 01:45:37;;;;;;;19.17;9.15;;;;;;;0.28;100.00;102839.34;5108268;28;20036;-62
2022/03/18 01:48:03;;;;;;;12.27;8.68;;;;;;;0.39;100.00;102827.63;5114416;28;20032;-62
2022/03/18 01:50:30;;;;;;;14.38;8.60;;;;;;;0.49;100.00;102822.78;5114770;28;20032;-62
2022/03/18 01:52:56;;;;;;;13.20;8.45;;;;;;;0.62;100.00;102847.31;5114714;28;20020;-62
2022/03/18 01:55:21;;;;;;;13.63;8.80;;;;;;;0.59;100.00;102842.03;5113555;28;20055;-62
2022/03/18 01:57:47;;;;;;;10.30;8.10;;;;;;;0.48;100.00;102840.84;5096504;28;20066;-62
2022/03/18 02:00:13;;;;;;;13.80;8.27;;;;;;;0.34;100.00;102844.69;5114267;28;20485;-62
2022/03/18 02:02:39;;;;;;;13.40;8.10;;;;;;;0.29;100.00;102846.28;5114513;28;20154;-62
2022/03/18 02:05:05;;;;;;;12.52;8.48;;;;;;;0.35;100.00;102852.53;5114336;28;20073;-61
2022/03/18 02:07:31;;;;;;;15.77;8.52;;;;;;;0.45;100.00;102853.69;5113838;28;20032;-62
2022/03/18 02:09:56;;;;;;;13.50;7.85;;;;;;;0.38;100.00;102847.44;5113019;28;20031;-62
2022/03/18 02:12:21;;;;;;;15.50;7.80;;;;;;;0.32;100.00;102867.06;5095570;28;20030;-62
2022/03/18 02:14:48;;;;;;;15.32;8.35;;;;;;;0.18;100.00;102848.53;5114154;28;20032;-62
2022/03/18 02:17:17;;;;;;;14.60;8.32;;;;;;;0.02;100.00;102842.81;5114036;28;20076;-62
2022/03/18 02:19:45;;;;;;;9.65;7.53;;;;;;;-0.01;100.00;102857.41;5114200;28;20028;-62
2022/03/18 02:22:11;;;;;;;9.98;7.18;;;;;;;-0.09;100.00;102858.84;5096734;28;20028;-61
2022/03/18 02:24:41;;;;;;;13.25;7.60;;;;;;;-0.16;100.00;102864.66;5113991;28;20028;-62
2022/03/18 02:27:07;;;;;;;13.18;7.43;;;;;;;-0.23;100.00;102852.34;5090762;28;20478;-62
2022/03/18 02:29:33;;;;;;;16.52;9.00;;;;;;;-0.26;100.00;102857.41;5113733;28;20030;-62
2022/03/18 02:32:00;;;;;;;17.42;8.98;;;;;;;-0.63;100.00;102805.38;5112919;28;20031;-61
2022/03/18 02:34:27;;;;;;;12.68;8.25;;;;;;;-0.37;100.00;102856.16;5113635;28;20059;-61
2022/03/18 02:36:52;;;;;;;15.50;8.70;;;;;;;-0.43;100.00;102855.09;5112719;28;20040;-61
2022/03/18 02:39:18;;;;;;;13.95;9.20;;;;;;;-0.51;100.00;102858.28;5113707;28;20365;-61
2022/03/18 02:41:43;;;;;;;15.85;8.80;;;;;;;-0.65;100.00;102848.31;5113800;28;20044;-61
2022/03/18 02:44:09;;;;;;;16.67;9.02;;;;;;;-1.14;100.00;102779.50;5112859;28;20422;-61
2022/03/18 02:46:34;;;;;;;14.18;7.93;;;;;;;-0.75;100.00;102856.56;5113795;28;20020;-62
2022/03/18 02:49:01;;;;;;;12.30;8.25;;;;;;;-0.86;100.00;102852.72;5113998;28;20028;-62
2022/03/18 02:51:27;;;;;;;12.20;8.38;;;;;;;-0.96;100.00;102840.31;5113801;28;20105;-62
2022/03/18 02:53:53;;;;;;;18.80;10.48;;;;;;;-0.89;100.00;102862.94;5113736;28;20423;-62
2022/03/18 02:56:19;;;;;;;14.48;9.65;;;;;;;-1.07;100.00;102843.38;5113711;28;20034;-62
2022/03/18 02:58:44;;;;;;;12.60;8.48;;;;;;;-0.87;100.00;102872.47;5109936;28;20028;-61
2022/03/18 03:01:10;;;;;;;14.48;9.23;;;;;;;-0.84;100.00;102871.69;5112502;28;20045;-61
2022/03/18 03:03:35;;;;;;;17.45;9.90;;;;;;;-0.92;100.00;102873.16;5113668;28;20027;-62
2022/03/18 03:08:44;;;;;;;15.97;9.33;;;;;;;-1.04;100.00;102863.25;5112657;28;20051;-62
2022/03/18 03:11:10;;;;;;;13.35;8.80;;;;;;;-1.01;100.00;102875.41;5113257;28;20270;-62
2022/03/18 03:13:35;;;;;;;14.02;8.55;;;;;;;-1.05;100.00;102872.69;5111799;28;20019;-62
2022/03/18 03:16:02;;;;;;;20.02;9.70;;;;;;;-1.10;100.00;102879.38;5113064;28;20027;-62
2022/03/18 03:18:28;;;;;;;14.75;8.80;;;;;;;-1.22;100.00;102871.22;5112506;28;20470;-62
2022/03/18 03:20:57;;;;;;;15.18;9.18;;;;;;;-1.24;100.00;102880.56;5113202;28;20045;-62
2022/03/18 03:23:26;;;;;;;17.00;9.32;;;;;;;-1.21;100.00;102885.84;5113241;28;20034;-62
2022/03/18 03:25:54;;;;;;;12.35;9.40;;;;;;;-1.22;100.00;102883.22;5112604;28;20023;-62
2022/03/18 03:28:20;;;;;;;12.93;9.10;;;;;;;-1.24;100.00;102880.56;5090650;28;20335;-62
2022/03/18 03:30:45;;;;;;;14.07;9.48;;;;;;;-1.26;100.00;102876.19;5113130;28;20034;-62
2022/03/18 03:33:11;;;;;;;16.40;9.40;;;;;;;-1.28;100.00;102894.16;5113221;28;20432;-62
2022/03/18 03:35:37;;;;;;;12.20;8.85;;;;;;;-1.27;100.00;102895.91;5094375;28;20042;-62
2022/03/18 03:38:03;;;;;;;15.82;8.80;;;;;;;-1.42;100.00;102866.09;5113201;28;20042;-62
2022/03/18 03:40:28;;;;;;;14.15;8.35;;;;;;;-1.26;100.00;102908.00;5112950;28;20035;-62
2022/03/18 03:42:54;;;;;;;16.35;8.52;;;;;;;-1.29;100.00;102907.91;5113355;28;20020;-62
2022/03/18 03:45:19;;;;;;;14.25;8.00;;;;;;;-1.33;100.00;102903.44;5112591;28;20099;-61
2022/03/18 03:47:45;;;;;;;12.57;9.07;;;;;;;-1.32;100.00;102896.59;5115785;28;20023;-62
2022/03/18 03:50:10;;;;;;;16.55;8.52;;;;;;;-1.31;100.00;102900.91;5117384;28;20023;-62
2022/03/18 03:52:36;;;;;;;14.90;8.10;;;;;;;-1.34;100.00;102906.81;5117039;28;20110;-62
2022/03/18 03:55:06;;;;;;;16.08;8.13;;;;;;;-1.42;100.00;102910.78;5116737;28;20023;-62
2022/03/18 03:57:31;;;;;;;11.40;7.45;;;;;;;-1.66;100.00;102879.81;5117065;28;20024;-62
2022/03/18 03:59:58;;;;;;;16.10;8.10;;;;;;;-1.54;100.00;102915.47;5116767;28;20397;-62
2022/03/18 04:02:24;;;;;;;12.50;8.70;;;;;;;-1.60;100.00;102920.41;5116765;28;20043;-61
2022/03/18 04:04:50;;;;;;;13.63;8.80;;;;;;;-1.60;100.00;102928.13;5113066;28;20028;-61
2022/03/18 04:07:15;;;;;;;16.40;8.32;;;;;;;-1.66;100.00;102922.72;5116467;28;20019;-61
2022/03/18 04:09:41;;;;;;;12.38;8.75;;;;;;;-1.61;100.00;102939.25;5115095;28;20115;-62
2022/03/18 04:12:07;;;;;;;16.90;8.60;;;;;;;-1.72;100.00;102922.47;5116441;28;20035;-62
2022/03/18 04:14:32;;;;;;;14.20;8.02;;;;;;;-1.90;100.00;102914.00;5116374;28;20465;-61
2022/03/18 04:16:58;;;;;;;16.13;8.27;;;;;;;-1.82;100.00;102915.19;5116611;28;20491;-62
2022/03/18 04:19:23;;;;;;;13.70;8.23;;;;;;;-1.65;100.00;102942.50;5116910;28;20512;-61
2022/03/18 04:21:49;;;;;;;15.15;8.45;;;;;;;-1.66;100.00;102945.94;5116485;28;20383;-61
2022/03/18 04:24:14;;;;;;;12.98;7.97;;;;;;;-1.77;100.00;102931.72;5116008;28;20419;-62
2022/03/18 04:26:40;;;;;;;13.32;8.63;;;;;;;-1.71;100.00;102937.13;5116871;28;20111;-62
2022/03/18 04:29:08;;;;;;;13.20;8.15;;;;;;;-1.73;100.00;102938.75;5116492;28;20028;-61
2022/03/18 04:31:33;;;;;;;15.27;8.10;;;;;;;-1.73;100.00;102949.94;5116418;28;20038;-62
2022/03/18 04:33:59;;;;;;;14.65;9.13;;;;;;;-1.88;100.00;102931.28;5098031;28;20031;-62
2022/03/18 04:36:24;;;;;;;16.63;8.85;;;;;;;-1.76;100.00;102949.81;5095018;28;20123;-62
2022/03/18 04:38:50;;;;;;;13.73;8.68;;;;;;;-1.73;100.00;102954.22;5115888;28;20069;-62
2022/03/18 04:41:15;;;;;;;20.05;9.57;;;;;;;-1.75;100.00;102963.56;5104365;28;20027;-62
2022/03/18 04:43:40;;;;;;;12.82;7.53;;;;;;;-1.78;100.00;102971.19;5114272;28;20024;-62
2022/03/18 04:46:06;;;;;;;12.73;8.02;;;;;;;-1.84;100.00;102966.66;5115964;28;20031;-62
2022/03/18 04:48:31;;;;;;;12.60;8.60;;;;;;;-1.80;100.00;102970.25;5097569;28;20462;-62
2022/03/18 04:50:57;;;;;;;13.00;8.68;;;;;;;-1.82;100.00;102970.16;5113333;28;20107;-62
2022/03/18 04:53:22;;;;;;;14.40;9.35;;;;;;;-1.84;100.00;102971.81;5114647;28;20023;-61
2022/03/18 04:55:48;;;;;;;16.92;8.90;;;;;;;-1.93;100.00;102944.78;5116172;28;20373;-62
2022/03/18 04:58:13;;;;;;;15.43;8.88;;;;;;;-1.94;100.00;102948.19;5114618;28;20027;-62
2022/03/18 05:00:38;;;;;;;13.20;9.27;;;;;;;-1.93;100.00;102966.28;5111360;28;20454;-62
2022/03/18 05:03:04;;;;;;;17.15;9.73;;;;;;;-2.00;100.00;102963.38;5090908;28;20027;-62
2022/03/18 05:05:29;;;;;;;14.13;9.90;;;;;;;-1.93;100.00;102983.44;5115412;28;20028;-62
2022/03/18 05:07:55;;;;;;;13.07;9.18;;;;;;;-2.00;100.00;102973.69;5115908;28;20115;-61
2022/03/18 05:10:22;;;;;;;16.73;9.57;;;;;;;-1.91;100.00;102997.25;5115126;28;20059;-62
2022/03/18 05:12:48;;;;;;;13.88;9.23;;;;;;;-2.04;100.00;102961.47;5115421;28;20039;-61
2022/03/18 05:15:13;;;;;;;13.65;9.00;;;;;;;-1.83;100.00;102994.19;5115416;28;20023;-62
2022/03/18 05:17:39;;;;;;;15.38;9.82;;;;;;;-1.82;100.00;103005.34;5099029;28;20027;-62
2022/03/18 05:20:09;;;;;;;13.48;9.07;;;;;;;-2.14;100.00;102962.78;5113815;28;20508;-62
2022/03/18 05:22:35;;;;;;;19.85;9.25;;;;;;;-1.83;100.00;103014.81;5115057;28;20027;-62
2022/03/18 05:25:00;;;;;;;14.23;8.68;;;;;;;-1.96;100.00;102985.88;5115046;28;20423;-62
2022/03/18 05:27:26;;;;;;;18.42;9.63;;;;;;;-2.15;100.00;102959.34;5115495;28;20061;-62
2022/03/18 05:29:51;;;;;;;15.55;8.70;;;;;;;-1.84;100.00;103023.34;5115464;28;20542;-62
2022/03/18 05:32:17;;;;;;;15.82;9.02;;;;;;;-1.98;100.00;103011.56;5115004;28;20027;-62
2022/03/18 05:34:42;;;;;;;14.50;8.02;;;;;;;-2.06;100.00;103015.47;5115437;28;20024;-62
2022/03/18 05:37:08;;;;;;;13.73;8.98;;;;;;;-1.97;100.00;103035.63;5114668;28;20031;-62
2022/03/18 05:39:34;;;;;;;16.10;8.95;;;;;;;-2.02;100.00;103042.25;5115341;28;20182;-62
2022/03/18 05:42:00;;;;;;;9.27;7.25;;;;;;;-2.09;100.00;103036.84;5115004;28;20080;-62
2022/03/18 05:44:25;;;;;;;11.23;8.18;;;;;;;-2.19;100.00;103029.53;5114775;28;20026;-62
2022/03/18 05:46:51;;;;;;;14.82;8.27;;;;;;;-2.35;100.00;103013.34;5110004;28;20063;-62
2022/03/18 05:49:17;;;;;;;14.68;8.48;;;;;;;-2.17;100.00;103037.34;5114431;28;20031;-62
2022/03/18 05:51:42;;;;;;;15.48;8.35;;;;;;;-2.53;100.00;102985.09;5115079;28;20032;-61
2022/03/18 05:54:08;;;;;;;19.10;9.43;;;;;;;-2.23;100.00;103027.63;5114763;28;20623;-61
2022/03/18 05:59:19;;;;;;;19.73;9.18;;;;;;;-2.17;100.00;103047.63;5106040;28;20453;-61
2022/03/18 06:01:44;;;;;;;14.35;8.95;;;;;;;-2.35;100.00;103019.38;5114657;28;20084;-61
2022/03/18 06:04:11;;;;;;;13.45;8.75;;;;;;;-2.18;100.00;103031.31;5109148;28;20027;-61
2022/03/18 06:06:38;;;;;;;15.27;8.98;;;;;;;-2.30;100.00;103015.28;5114567;28;20118;-61
2022/03/18 06:11:48;;;;;;;16.58;11.23;;;;;;;-1.99;100.00;103050.16;5114301;28;20089;-62
2022/03/18 06:14:14;;;;;;;15.73;10.23;;;;;;;-1.95;100.00;103049.44;5114231;28;20031;-62
2022/03/18 06:16:40;;;;;;;17.02;10.43;;;;;;;-1.85;100.00;103061.91;5096079;28;20469;-62
2022/03/18 06:19:05;;;;;;;18.58;11.57;;;;;;;-1.77;100.00;103076.00;5113662;28;20047;-62
2022/03/18 06:21:31;;;;;;;26.00;12.10;;;;;;;-1.72;100.00;103064.19;5114123;28;20434;-62
2022/03/18 06:23:56;;;;;;;19.55;11.05;;;;;;;-1.63;100.00;103073.22;5095840;28;20074;-61
2022/03/18 06:26:22;;;;;;;23.48;11.90;;;;;;;-1.57;100.00;103072.56;5108939;28;20072;-62
2022/03/18 06:28:48;;;;;;;17.40;10.98;;;;;;;-1.53;100.00;103079.63;5112535;28;20474;-62
2022/03/18 06:31:13;;;;;;;18.70;11.43;;;;;;;-1.55;100.00;103058.94;5113786;28;20028;-62
2022/03/18 06:33:43;;;;;;;19.25;11.27;;;;;;;-1.40;100.00;103079.31;5113691;28;20393;-62
2022/03/18 06:36:09;;;;;;;22.80;13.55;;;;;;;-1.33;100.00;103081.34;5113790;28;20067;-62
2022/03/18 06:38:35;;;;;;;16.23;12.45;;;;;;;-1.17;100.00;103086.31;5096149;28;20059;-62
2022/03/18 06:41:00;;;;;;;14.98;11.52;;;;;;;-1.24;100.00;103055.03;5085213;28;20102;-62
2022/03/18 06:43:25;;;;;;;16.17;12.77;;;;;;;-0.93;100.00;103088.09;5109029;28;20931;-62
2022/03/18 06:45:51;;;;;;;21.80;13.38;;;;;;;-0.81;100.00;103089.47;5086098;28;20131;-62
2022/03/18 06:48:16;;;;;;;18.02;13.63;;;;;;;-0.71;100.00;103080.41;5100206;28;20122;-62
2022/03/18 06:50:42;;;;;;;25.50;14.93;;;;;;;-0.59;100.00;103081.75;5112974;28;20023;-62
2022/03/18 06:53:07;;;;;;;19.88;14.05;;;;;;;-0.42;100.00;103087.56;5113469;28;20024;-62
2022/03/18 06:55:32;;;;;;;20.90;13.52;;;;;;;-0.29;100.00;103074.28;5113538;28;20074;-62
2022/03/18 06:57:58;;;;;;;22.60;16.25;;;;;;;-0.16;100.00;103060.97;5112534;28;20470;-62
2022/03/18 07:00:23;;;;;;;25.40;17.55;;;;;;;0.09;100.00;103079.97;5113480;28;20106;-62
2022/03/18 07:02:49;;;;;;;27.05;17.45;;;;;;;0.13;100.00;103067.22;5112842;28;20028;-62
2022/03/18 07:05:14;;;;;;;28.10;18.48;;;;;;;0.35;100.00;103090.38;5113411;28;20023;-62
2022/03/18 07:07:40;;;;;;;27.13;20.13;;;;;;;0.62;100.00;103100.78;5112882;28;20045;-62
2022/03/18 07:10:06;;;;;;;39.78;22.92;;;;;;;0.92;100.00;103099.22;5113125;28;20027;-61
2022/03/18 07:12:31;;;;;;;28.13;21.83;;;;;;;1.10;100.00;103095.47;5112869;28;20073;-62
2022/03/18 07:14:57;;;;;;;29.35;19.80;;;;;;;1.02;100.00;103043.44;5113092;28;20035;-62
2022/03/18 07:20:07;;;;;;;33.38;19.88;;;;;;;1.45;100.00;103068.97;5096140;28;20100;-62
2022/03/18 07:22:33;;;;;;;25.85;19.27;;;;;;;1.57;100.00;103066.75;5112516;28;20058;-62
2022/03/18 07:24:58;;;;;;;40.17;19.23;;;;;;;1.84;100.00;103083.09;5112640;28;20031;-62
2022/03/18 07:27:23;;;;;;;22.90;17.98;;;;;;;1.99;100.00;103085.25;5104008;28;20111;-62
2022/03/18 07:29:49;;;;;;;22.95;17.58;;;;;;;2.21;100.00;103097.97;5112823;28;20038;-62
2022/03/18 07:32:15;;;;;;;23.63;15.63;;;;;;;2.35;100.00;103081.06;5113340;28;20354;-62
2022/03/18 07:34:40;;;;;;;25.42;16.80;;;;;;;2.49;100.00;103084.91;5113095;28;20039;-62
2022/03/18 07:37:06;;;;;;;20.35;13.82;;;;;;;2.55;100.00;103079.88;5112869;28;20031;-62
2022/03/18 07:39:31;;;;;;;18.75;12.88;;;;;;;2.70;100.00;103084.56;5112679;28;20119;-62
2022/03/18 07:41:56;;;;;;;16.17;12.10;;;;;;;2.75;100.00;103082.94;5094722;28;20031;-62
2022/03/18 07:44:22;;;;;;;15.68;12.25;;;;;;;2.92;100.00;103089.44;5112467;28;20023;-62
2022/03/18 07:46:47;;;;;;;19.20;12.52;;;;;;;3.06;100.00;103094.97;5113528;28;20133;-62
2022/03/18 07:49:13;;;;;;;26.50;11.95;;;;;;;3.16;100.00;103091.75;5094583;28;20035;-63
2022/03/18 07:51:38;;;;;;;22.35;11.52;;;;;;;3.28;100.00;103097.22;5098680;28;20469;-62
2022/03/18 07:54:03;;;;;;;18.13;10.75;;;;;;;3.39;100.00;103097.47;5112305;28;20035;-62
2022/03/18 07:56:29;;;;;;;16.27;9.82;;;;;;;3.55;100.00;103105.63;5112540;28;20409;-62
2022/03/18 07:58:55;;;;;;;17.77;9.65;;;;;;;3.62;100.00;103105.81;5111564;28;20457;-62
2022/03/18 08:01:20;;;;;;;16.40;8.98;;;;;;;3.74;100.00;103085.25;5094144;28;20042;-62
2022/03/18 08:03:46;;;;;;;14.23;8.02;;;;;;;3.93;100.00;103108.19;5111749;28;20072;-62
2022/03/18 08:06:11;;;;;;;12.75;7.85;;;;;;;4.06;100.00;103105.88;5112026;28;20103;-63
2022/03/18 08:08:36;;;;;;;13.30;7.43;;;;;;;4.20;100.00;103115.66;5110773;28;20023;-62
2022/03/18 08:11:02;;;;;;;11.95;7.70;;;;;;;4.30;100.00;103113.28;5111031;28;20031;-62
2022/03/18 08:13:28;;;;;;;10.45;7.18;;;;;;;4.41;100.00;103122.16;5091826;28;20059;-62
2022/03/18 08:15:53;;;;;;;16.08;6.47;;;;;;;4.38;100.00;103106.50;5093724;28;20077;-62
2022/03/18 08:18:19;;;;;;;12.27;6.53;;;;;;;4.70;100.00;103148.72;5105402;28;20036;-62
2022/03/18 08:20:49;;;;;;;15.57;6.25;;;;;;;4.62;100.00;103111.28;5110451;28;20028;-62
2022/03/18 08:23:15;;;;;;;10.50;5.97;;;;;;;4.88;100.00;103137.75;5085288;28;20031;-62
2022/03/18 08:25:41;;;;;;;13.77;5.18;;;;;;;5.03;100.00;103151.94;5103377;28;20036;-62
2022/03/18 08:28:07;;;;;;;8.75;5.07;;;;;;;5.18;100.00;103155.63;5097962;28;20178;-62
2022/03/18 08:30:33;;;;;;;15.10;5.57;;;;;;;5.30;100.00;103166.28;5094659;28;20450;-62
2022/03/18 08:32:58;;;;;;;14.52;5.75;;;;;;;5.39;100.00;103156.00;5088485;28;20027;-62
2022/03/18 08:35:24;;;;;;;10.35;5.38;;;;;;;5.49;100.00;103163.97;5085277;28;20028;-62
2022/03/18 08:37:58;;;;;;;9.43;4.97;;;;;;;5.44;100.00;103141.31;5091499;28;20027;-62
2022/03/18 08:40:33;;;;;;;;;;;;;;;5.66;100.00;103172.94;5094668;28;20873;-62
2022/03/18 08:42:59;;;;;;;8.35;4.22;;;;;;;5.73;100.00;103173.91;5085666;28;19919;-62
2022/03/18 08:45:25;;;;;;;10.55;5.15;;;;;;;5.79;100.00;103168.75;5079614;28;20058;-62
2022/03/18 08:47:51;;;;;;;9.30;5.18;;;;;;;5.94;100.00;103183.78;5084385;28;20122;-62
2022/03/18 08:50:17;;;;;;;8.50;5.07;;;;;;;6.11;100.00;103196.22;5064699;28;20031;-62
2022/03/18 08:52:43;;;;;;;10.57;4.50;;;;;;;6.10;100.00;103181.41;5075832;28;20028;-62
2022/03/18 08:55:09;;;;;;;15.30;5.20;;;;;;;6.18;100.00;103201.50;5096056;28;20030;-62
2022/03/18 08:57:37;;;;;;;9.90;4.75;;;;;;;6.23;100.00;103192.00;5079465;28;20035;-62
2022/03/18 09:00:07;;;;;;;9.02;4.22;;;;;;;6.31;100.00;103192.97;5078166;28;20031;-62
2022/03/18 09:02:36;;;;;;;7.53;4.20;;;;;;;6.37;100.00;103200.88;5073756;28;20026;-62
2022/03/18 09:05:03;;;;;;;6.15;3.85;;;;;;;6.47;100.00;103194.91;5082016;28;20042;-62
2022/03/18 09:07:28;;;;;;;8.35;4.55;;;;;;;6.52;100.00;103195.84;5084162;28;20047;-62
2022/03/18 09:09:54;;;;;;;9.32;3.83;;;;;;;6.60;100.00;103200.28;5086965;28;20080;-62
2022/03/18 09:12:19;;;;;;;8.93;3.40;;;;;;;6.68;100.00;103205.59;5091011;28;20175;-62
2022/03/18 09:14:45;;;;;;;6.70;3.72;;;;;;;6.77;100.00;103196.97;5086400;28;20031;-62
2022/03/18 09:17:10;;;;;;;7.45;3.90;;;;;;;6.79;100.00;103198.78;5084361;28;20924;-62
2022/03/18 09:19:37;;;;;;;14.15;4.50;;;;;;;6.53;100.00;103140.13;5077488;28;20971;-62
2022/03/18 09:22:07;;;;;;;6.00;2.92;;;;;;;6.94;100.00;103191.06;5084104;28;20024;-62
2022/03/18 09:24:36;;;;;;;13.68;3.92;;;;;;;7.10;100.00;103197.31;5086835;28;20043;-62
2022/03/18 09:27:01;;;;;;;9.43;4.00;;;;;;;7.24;100.00;103205.28;5086165;28;20031;-62
2022/03/18 09:29:27;;;;;;;10.88;3.20;;;;;;;7.43;100.00;103222.91;5094364;28;20104;-62
2022/03/18 09:31:53;;;;;;;7.38;3.35;;;;;;;7.45;100.00;103213.31;5093770;28;20023;-62
2022/03/18 09:34:24;;;;;;;8.38;4.20;;;;;;;7.46;100.00;103217.69;5096511;28;20057;-62
2022/03/18 09:36:57;;;;;;;8.95;3.70;;;;;;;7.60;100.00;103222.13;5091495;28;20105;-62
2022/03/18 09:39:24;;;;;;;6.20;3.47;;;;;;;7.73;100.00;103220.50;5103925;28;20027;-61
2022/03/18 09:41:50;;;;;;;11.27;2.92;;;;;;;7.68;100.00;103198.66;5111062;28;20062;-61
2022/03/18 09:44:16;;;;;;;8.82;3.55;;;;;;;7.88;100.00;103223.22;5074562;28;20883;-62
2022/03/18 09:46:42;;;;;;;12.07;3.92;;;;;;;7.89;100.00;103222.34;5088664;28;20118;-62
2022/03/18 09:49:11;;;;;;;6.50;4.03;;;;;;;7.60;100.00;103163.72;5092326;28;20035;-62
2022/03/18 09:51:43;;;;;;;6.90;3.03;;;;;;;7.72;100.00;103163.78;5087485;28;20032;-62
2022/03/18 09:54:12;;;;;;;5.70;2.65;;;;;;;8.16;100.00;103225.13;5093508;28;20473;-62
2022/03/18 09:56:42;;;;;;;10.82;3.63;;;;;;;8.25;100.00;103233.91;5091787;28;20043;-62
2022/03/18 09:59:08;;;;;;;6.32;3.17;;;;;;;8.29;100.00;103230.44;5093538;28;20027;-62
2022/03/18 10:01:34;;;;;;;6.32;3.17;;;;;;;8.37;100.00;103236.63;5069504;28;20058;-62
2022/03/18 10:04:07;;;;;;;7.53;3.88;;;;;;;8.50;100.00;103220.97;5068794;28;20833;-62
2022/03/18 10:06:34;;;;;;;9.87;3.90;;;;;;;8.62;100.00;103233.22;5080386;28;20808;-62
2022/03/18 10:09:00;;;;;;;14.75;3.80;;;;;;;8.72;100.00;103228.00;5066903;28;20032;-62
2022/03/18 10:11:33;;;;;;;7.30;3.47;;;;;;;8.83;100.00;103232.41;5066244;28;20827;-62
2022/03/18 10:14:07;;;;;;;11.32;4.00;;;;;;;8.90;100.00;103235.06;5067624;28;20012;-62
2022/03/18 10:16:40;;;;;;;7.35;4.05;;;;;;;8.98;100.00;103229.81;5066775;28;20296;-62
2022/03/18 10:19:16;;;;;;;6.10;3.38;;;;;;;9.01;100.00;103233.34;5074578;28;20084;-62
2022/03/18 10:21:51;;;;;;;6.55;3.40;;;;;;;9.10;100.00;103230.72;5060632;28;20081;-62
2022/03/18 10:24:19;;;;;;;12.27;3.80;;;;;;;9.30;100.00;103227.22;5072777;28;20044;-62
2022/03/18 10:26:44;;;;;;;7.05;3.83;;;;;;;9.47;100.00;103221.13;5074827;28;20039;-62
2022/03/18 10:29:11;;;;;;;5.93;3.38;;;;;;;9.60;100.00;103222.84;5074507;28;20082;-62
2022/03/18 10:31:39;;;;;;;5.22;2.78;;;;;;;9.69;100.00;103220.25;5071522;28;20106;-62
2022/03/18 10:37:12;;;;;;;9.23;3.70;;;;;;;9.82;100.00;103223.72;5091983;28;20100;-62
2022/03/18 10:39:41;;;;;;;6.97;3.47;;;;;;;9.96;100.00;103227.19;5066652;28;20819;-62
2022/03/18 10:42:15;;;;;;;9.18;4.03;;;;;;;10.01;100.00;103219.28;5078284;28;20030;-62
2022/03/18 10:44:54;;;;;;;10.25;3.17;;;;;;;10.10;100.00;103241.19;5075050;28;20047;-62
2022/03/18 10:47:34;;;;;;;8.98;3.88;;;;;;;10.17;100.00;103232.41;5074725;28;20036;-61
2022/03/18 10:50:11;;;;;;;7.18;3.22;;;;;;;10.31;100.00;103229.72;5082194;28;20031;-61
2022/03/18 10:52:36;;;;;;;13.10;3.55;;;;;;;10.41;100.00;103226.19;5087381;28;20047;-61
2022/03/18 10:55:30;;;;;;;7.22;3.10;;;;;;;10.50;100.00;103234.06;5074654;28;20853;-61
2022/03/18 10:58:02;;;;;;;5.15;3.17;;;;;;;10.61;100.00;103223.50;5082475;28;20229;-61
2022/03/18 11:00:30;;;;;;;11.93;3.95;;;;;;;10.78;100.00;103229.56;5090493;28;20035;-61
2022/03/18 11:02:59;;;;;;;14.73;3.72;;;;;;;10.97;100.00;103225.91;5095437;28;20023;-61
2022/03/18 11:05:29;;;;;;;9.15;4.28;;;;;;;11.09;100.00;103224.94;5091554;28;20055;-61
2022/03/18 11:07:55;;;;;;;6.45;3.58;;;;;;;11.20;100.00;103231.88;5075115;28;20151;-61
2022/03/18 11:13:07;;;;;;;8.35;3.50;;;;;;;11.34;93.91;103228.28;5077340;28;20499;-61
2022/03/18 11:15:35;;;;;;;6.40;3.10;;;;;;;11.24;95.10;103196.78;5080651;28;20039;-61
2022/03/18 11:18:04;;;;;;;13.07;3.95;;;;;;;11.55;95.91;103233.38;5091054;28;20476;-61
2022/03/18 11:20:33;;;;;;;7.25;3.45;;;;;;;11.68;93.67;103229.75;5094335;28;20023;-62
2022/03/18 11:22:59;;;;;;;10.13;3.40;;;;;;;11.81;94.17;103226.13;5100835;28;20031;-61
2022/03/18 11:25:26;;;;;;;7.50;3.53;;;;;;;11.91;90.10;103234.81;5111305;28;20028;-62
2022/03/18 11:27:52;;;;;;;8.40;3.53;;;;;;;12.04;91.64;103226.75;5069276;28;20027;-61
2022/03/18 11:30:18;;;;;;;8.57;4.28;;;;;;;12.21;91.04;103222.19;5078629;28;20147;-61